sensor_id;sensor_type;location;lat;lon;timestamp;P1;durP1;ratioP1;P2;durP2;ratioP2
18716;SDS011;9487;50.892;6.906;2023-02-28T00:00:00;4.67;;;2.87;;
18716;SDS011;9487;50.892;6.906;2023-02-28T00:02:33;6.40;;;2.77;;
18716;SDS011;9487;50.892;6.906;2023-02-28T00:05:00;4.07;;;2.53;;
18716;SDS011;9487;50.892;6.906;2023-02-28T00:07:28;3.27;;;2.40;;
18716;SDS011;9487;50.892;6.906;2023-02-28T00:09:55;4.87;;;2.93;;
18716;SDS011;9487;50.892;6.906;2023-02-28T00:12:22;6.10;;;2.63;;
18716;SDS011;9487;50.892;6.906;2023-02-28T00:14:51;3.93;;;2.53;;
18716;SDS011;9487;50.892;6.906;2023-02-28T00:17:18;3.70;;;2.43;;
18716;SDS011;9487;50.892;6.906;2023-02-28T00:19:46;4.37;;;2.70;;
18716;SDS011;9487;50.892;6.906;2023-02-28T00:22:13;3.67;;;2.57;;
18716;SDS011;9487;50.892;6.906;2023-02-28T00:24:41;4.03;;;2.73;;
18716;SDS011;9487;50.892;6.906;2023-02-28T00:27:08;4.50;;;2.70;;
18716;SDS011;9487;50.892;6.906;2023-02-28T00:29:35;5.63;;;2.97;;
18716;SDS011;9487;50.892;6.906;2023-02-28T00:32:04;4.03;;;2.83;;
18716;SDS011;9487;50.892;6.906;2023-02-28T00:34:31;4.00;;;2.40;;
18716;SDS011;9487;50.892;6.906;2023-02-28T00:37:02;5.83;;;2.87;;
18716;SDS011;9487;50.892;6.906;2023-02-28T00:39:30;4.20;;;2.37;;
18716;SDS011;9487;50.892;6.906;2023-02-28T00:41:57;3.90;;;2.67;;
18716;SDS011;9487;50.892;6.906;2023-02-28T00:44:23;3.80;;;2.80;;
18716;SDS011;9487;50.892;6.906;2023-02-28T00:46:50;4.83;;;2.67;;
18716;SDS011;9487;50.892;6.906;2023-02-28T00:49:20;4.07;;;2.77;;
18716;SDS011;9487;50.892;6.906;2023-02-28T00:51:47;3.33;;;2.43;;
18716;SDS011;9487;50.892;6.906;2023-02-28T00:54:14;4.70;;;2.73;;
18716;SDS011;9487;50.892;6.906;2023-02-28T00:56:41;4.00;;;2.70;;
18716;SDS011;9487;50.892;6.906;2023-02-28T00:59:08;4.93;;;2.83;;
18716;SDS011;9487;50.892;6.906;2023-02-28T01:01:36;5.90;;;2.97;;
18716;SDS011;9487;50.892;6.906;2023-02-28T01:04:03;4.93;;;2.50;;
18716;SDS011;9487;50.892;6.906;2023-02-28T01:06:31;3.33;;;2.63;;
18716;SDS011;9487;50.892;6.906;2023-02-28T01:08:58;5.30;;;3.27;;
18716;SDS011;9487;50.892;6.906;2023-02-28T01:11:25;5.17;;;2.70;;
18716;SDS011;9487;50.892;6.906;2023-02-28T01:13:52;5.43;;;2.40;;
18716;SDS011;9487;50.892;6.906;2023-02-28T01:16:19;4.90;;;2.33;;
18716;SDS011;9487;50.892;6.906;2023-02-28T01:18:46;4.80;;;2.50;;
18716;SDS011;9487;50.892;6.906;2023-02-28T01:21:13;5.20;;;2.87;;
18716;SDS011;9487;50.892;6.906;2023-02-28T01:23:43;5.03;;;2.43;;
18716;SDS011;9487;50.892;6.906;2023-02-28T01:26:11;4.70;;;2.77;;
18716;SDS011;9487;50.892;6.906;2023-02-28T01:28:40;5.53;;;2.70;;
18716;SDS011;9487;50.892;6.906;2023-02-28T01:31:08;3.17;;;2.43;;
18716;SDS011;9487;50.892;6.906;2023-02-28T01:33:35;3.13;;;2.27;;
18716;SDS011;9487;50.892;6.906;2023-02-28T01:36:03;3.50;;;2.20;;
18716;SDS011;9487;50.892;6.906;2023-02-28T01:38:31;4.90;;;2.30;;
18716;SDS011;9487;50.892;6.906;2023-02-28T01:41:00;4.37;;;2.30;;
18716;SDS011;9487;50.892;6.906;2023-02-28T01:43:27;2.97;;;2.50;;
18716;SDS011;9487;50.892;6.906;2023-02-28T01:46:15;6.43;;;2.43;;
18716;SDS011;9487;50.892;6.906;2023-02-28T01:48:42;3.40;;;2.70;;
18716;SDS011;9487;50.892;6.906;2023-02-28T01:51:15;4.67;;;2.63;;
18716;SDS011;9487;50.892;6.906;2023-02-28T01:53:47;4.00;;;2.27;;
18716;SDS011;9487;50.892;6.906;2023-02-28T01:56:21;4.53;;;2.80;;
18716;SDS011;9487;50.892;6.906;2023-02-28T01:58:50;3.70;;;2.40;;
18716;SDS011;9487;50.892;6.906;2023-02-28T02:01:18;2.90;;;2.37;;
18716;SDS011;9487;50.892;6.906;2023-02-28T02:03:47;5.07;;;2.70;;
18716;SDS011;9487;50.892;6.906;2023-02-28T02:06:20;5.33;;;2.53;;
18716;SDS011;9487;50.892;6.906;2023-02-28T02:08:47;2.67;;;2.17;;
18716;SDS011;9487;50.892;6.906;2023-02-28T02:11:14;3.77;;;2.33;;
18716;SDS011;9487;50.892;6.906;2023-02-28T02:13:51;3.30;;;2.57;;
18716;SDS011;9487;50.892;6.906;2023-02-28T02:16:34;3.60;;;2.37;;
18716;SDS011;9487;50.892;6.906;2023-02-28T02:19:12;2.90;;;2.30;;
18716;SDS011;9487;50.892;6.906;2023-02-28T02:22:12;4.67;;;2.60;;
18716;SDS011;9487;50.892;6.906;2023-02-28T02:25:03;3.47;;;2.50;;
18716;SDS011;9487;50.892;6.906;2023-02-28T02:27:50;3.37;;;2.47;;
18716;SDS011;9487;50.892;6.906;2023-02-28T02:30:43;3.30;;;2.33;;
18716;SDS011;9487;50.892;6.906;2023-02-28T02:36:50;4.63;;;3.00;;
18716;SDS011;9487;50.892;6.906;2023-02-28T02:39:21;4.57;;;3.00;;
18716;SDS011;9487;50.892;6.906;2023-02-28T02:41:55;3.13;;;2.50;;
18716;SDS011;9487;50.892;6.906;2023-02-28T02:44:27;4.97;;;2.63;;
18716;SDS011;9487;50.892;6.906;2023-02-28T02:47:01;4.07;;;2.70;;
18716;SDS011;9487;50.892;6.906;2023-02-28T02:49:35;3.77;;;2.50;;
18716;SDS011;9487;50.892;6.906;2023-02-28T02:52:04;3.47;;;2.43;;
18716;SDS011;9487;50.892;6.906;2023-02-28T02:54:34;3.40;;;2.30;;
18716;SDS011;9487;50.892;6.906;2023-02-28T02:57:04;5.53;;;2.70;;
18716;SDS011;9487;50.892;6.906;2023-02-28T02:59:34;5.83;;;2.27;;
18716;SDS011;9487;50.892;6.906;2023-02-28T03:02:04;3.83;;;2.63;;
18716;SDS011;9487;50.892;6.906;2023-02-28T03:04:36;4.00;;;2.83;;
18716;SDS011;9487;50.892;6.906;2023-02-28T03:07:08;3.40;;;2.60;;
18716;SDS011;9487;50.892;6.906;2023-02-28T03:09:35;2.53;;;2.33;;
18716;SDS011;9487;50.892;6.906;2023-02-28T03:12:02;2.73;;;2.37;;
18716;SDS011;9487;50.892;6.906;2023-02-28T03:14:35;3.27;;;2.37;;
18716;SDS011;9487;50.892;6.906;2023-02-28T03:17:19;3.30;;;2.63;;
18716;SDS011;9487;50.892;6.906;2023-02-28T03:19:58;4.90;;;2.60;;
18716;SDS011;9487;50.892;6.906;2023-02-28T03:22:38;4.27;;;2.50;;
18716;SDS011;9487;50.892;6.906;2023-02-28T03:25:19;3.77;;;2.90;;
18716;SDS011;9487;50.892;6.906;2023-02-28T03:27:55;3.80;;;2.77;;
18716;SDS011;9487;50.892;6.906;2023-02-28T03:30:29;4.47;;;2.33;;
18716;SDS011;9487;50.892;6.906;2023-02-28T03:33:03;4.23;;;2.87;;
18716;SDS011;9487;50.892;6.906;2023-02-28T03:35:36;4.23;;;2.70;;
18716;SDS011;9487;50.892;6.906;2023-02-28T03:38:07;4.70;;;3.00;;
18716;SDS011;9487;50.892;6.906;2023-02-28T03:40:39;5.27;;;2.20;;
18716;SDS011;9487;50.892;6.906;2023-02-28T03:43:10;4.37;;;2.60;;
18716;SDS011;9487;50.892;6.906;2023-02-28T03:45:42;4.13;;;2.43;;
18716;SDS011;9487;50.892;6.906;2023-02-28T03:48:11;3.30;;;2.57;;
18716;SDS011;9487;50.892;6.906;2023-02-28T03:50:43;5.90;;;2.80;;
18716;SDS011;9487;50.892;6.906;2023-02-28T03:53:12;3.17;;;2.87;;
18716;SDS011;9487;50.892;6.906;2023-02-28T03:55:42;3.53;;;2.43;;
18716;SDS011;9487;50.892;6.906;2023-02-28T03:58:12;2.90;;;1.83;;
18716;SDS011;9487;50.892;6.906;2023-02-28T04:00:46;3.23;;;2.93;;
18716;SDS011;9487;50.892;6.906;2023-02-28T04:03:15;3.60;;;2.67;;
18716;SDS011;9487;50.892;6.906;2023-02-28T04:05:48;2.87;;;2.00;;
18716;SDS011;9487;50.892;6.906;2023-02-28T04:08:17;3.60;;;3.03;;
18716;SDS011;9487;50.892;6.906;2023-02-28T04:10:45;3.77;;;2.73;;
18716;SDS011;9487;50.892;6.906;2023-02-28T04:13:16;5.17;;;2.80;;
18716;SDS011;9487;50.892;6.906;2023-02-28T04:15:43;3.70;;;2.93;;
18716;SDS011;9487;50.892;6.906;2023-02-28T04:18:10;3.00;;;2.50;;
18716;SDS011;9487;50.892;6.906;2023-02-28T04:20:36;4.10;;;2.77;;
18716;SDS011;9487;50.892;6.906;2023-02-28T04:23:04;2.87;;;2.43;;
18716;SDS011;9487;50.892;6.906;2023-02-28T04:25:31;4.07;;;2.30;;
18716;SDS011;9487;50.892;6.906;2023-02-28T04:27:58;3.40;;;2.50;;
18716;SDS011;9487;50.892;6.906;2023-02-28T04:30:25;3.00;;;2.60;;
18716;SDS011;9487;50.892;6.906;2023-02-28T04:32:52;2.83;;;2.53;;
18716;SDS011;9487;50.892;6.906;2023-02-28T04:35:18;3.67;;;2.90;;
18716;SDS011;9487;50.892;6.906;2023-02-28T04:37:45;4.07;;;2.63;;
18716;SDS011;9487;50.892;6.906;2023-02-28T04:40:13;5.13;;;2.50;;
18716;SDS011;9487;50.892;6.906;2023-02-28T04:42:40;3.53;;;2.50;;
18716;SDS011;9487;50.892;6.906;2023-02-28T04:45:19;3.37;;;2.70;;
18716;SDS011;9487;50.892;6.906;2023-02-28T04:47:46;4.80;;;2.70;;
18716;SDS011;9487;50.892;6.906;2023-02-28T04:50:13;3.73;;;2.30;;
18716;SDS011;9487;50.892;6.906;2023-02-28T04:52:39;3.30;;;2.63;;
18716;SDS011;9487;50.892;6.906;2023-02-28T04:55:07;3.63;;;2.80;;
18716;SDS011;9487;50.892;6.906;2023-02-28T04:57:35;3.97;;;2.87;;
18716;SDS011;9487;50.892;6.906;2023-02-28T05:00:02;4.33;;;2.50;;
18716;SDS011;9487;50.892;6.906;2023-02-28T05:02:36;5.20;;;3.20;;
18716;SDS011;9487;50.892;6.906;2023-02-28T05:05:04;3.13;;;2.60;;
18716;SDS011;9487;50.892;6.906;2023-02-28T05:07:31;4.47;;;2.90;;
18716;SDS011;9487;50.892;6.906;2023-02-28T05:09:58;3.47;;;2.60;;
18716;SDS011;9487;50.892;6.906;2023-02-28T05:12:24;4.00;;;3.30;;
18716;SDS011;9487;50.892;6.906;2023-02-28T05:14:53;4.27;;;2.90;;
18716;SDS011;9487;50.892;6.906;2023-02-28T05:17:19;3.10;;;2.77;;
18716;SDS011;9487;50.892;6.906;2023-02-28T05:19:46;3.50;;;2.63;;
18716;SDS011;9487;50.892;6.906;2023-02-28T05:22:13;4.00;;;2.87;;
18716;SDS011;9487;50.892;6.906;2023-02-28T05:24:41;4.10;;;2.70;;
18716;SDS011;9487;50.892;6.906;2023-02-28T05:27:08;5.50;;;3.00;;
18716;SDS011;9487;50.892;6.906;2023-02-28T05:29:35;3.83;;;3.27;;
18716;SDS011;9487;50.892;6.906;2023-02-28T05:32:08;4.73;;;2.83;;
18716;SDS011;9487;50.892;6.906;2023-02-28T05:34:36;3.40;;;2.73;;
18716;SDS011;9487;50.892;6.906;2023-02-28T05:37:03;4.80;;;3.40;;
18716;SDS011;9487;50.892;6.906;2023-02-28T05:39:30;4.00;;;3.00;;
18716;SDS011;9487;50.892;6.906;2023-02-28T05:41:57;3.60;;;2.73;;
18716;SDS011;9487;50.892;6.906;2023-02-28T05:44:24;6.33;;;3.90;;
18716;SDS011;9487;50.892;6.906;2023-02-28T05:46:51;4.83;;;3.00;;
18716;SDS011;9487;50.892;6.906;2023-02-28T05:49:19;4.27;;;3.03;;
18716;SDS011;9487;50.892;6.906;2023-02-28T05:51:46;4.30;;;2.97;;
18716;SDS011;9487;50.892;6.906;2023-02-28T05:54:13;3.30;;;2.70;;
18716;SDS011;9487;50.892;6.906;2023-02-28T05:56:39;4.03;;;3.50;;
18716;SDS011;9487;50.892;6.906;2023-02-28T05:59:09;5.30;;;3.90;;
18716;SDS011;9487;50.892;6.906;2023-02-28T06:01:36;3.67;;;2.33;;
18716;SDS011;9487;50.892;6.906;2023-02-28T06:04:05;2.80;;;2.43;;
18716;SDS011;9487;50.892;6.906;2023-02-28T06:06:34;3.20;;;2.50;;
18716;SDS011;9487;50.892;6.906;2023-02-28T06:09:02;6.63;;;2.77;;
18716;SDS011;9487;50.892;6.906;2023-02-28T06:11:29;3.87;;;2.63;;
18716;SDS011;9487;50.892;6.906;2023-02-28T06:13:56;5.33;;;3.47;;
18716;SDS011;9487;50.892;6.906;2023-02-28T06:16:25;4.60;;;3.03;;
18716;SDS011;9487;50.892;6.906;2023-02-28T06:18:53;3.40;;;2.80;;
18716;SDS011;9487;50.892;6.906;2023-02-28T06:21:21;4.50;;;2.57;;
18716;SDS011;9487;50.892;6.906;2023-02-28T06:23:49;4.63;;;3.10;;
18716;SDS011;9487;50.892;6.906;2023-02-28T06:26:16;4.33;;;2.57;;
18716;SDS011;9487;50.892;6.906;2023-02-28T06:28:43;3.67;;;3.27;;
18716;SDS011;9487;50.892;6.906;2023-02-28T06:31:10;5.17;;;3.20;;
18716;SDS011;9487;50.892;6.906;2023-02-28T06:33:39;5.70;;;2.73;;
18716;SDS011;9487;50.892;6.906;2023-02-28T06:36:06;3.30;;;2.60;;
18716;SDS011;9487;50.892;6.906;2023-02-28T06:38:35;4.57;;;3.10;;
18716;SDS011;9487;50.892;6.906;2023-02-28T06:41:03;3.60;;;3.20;;
18716;SDS011;9487;50.892;6.906;2023-02-28T06:43:31;3.73;;;2.83;;
18716;SDS011;9487;50.892;6.906;2023-02-28T06:46:01;4.83;;;3.13;;
18716;SDS011;9487;50.892;6.906;2023-02-28T06:48:29;4.40;;;3.27;;
18716;SDS011;9487;50.892;6.906;2023-02-28T06:51:01;6.70;;;3.93;;
18716;SDS011;9487;50.892;6.906;2023-02-28T06:53:29;6.23;;;3.67;;
18716;SDS011;9487;50.892;6.906;2023-02-28T06:55:56;4.87;;;3.87;;
18716;SDS011;9487;50.892;6.906;2023-02-28T06:58:24;4.43;;;3.63;;
18716;SDS011;9487;50.892;6.906;2023-02-28T07:00:51;7.67;;;5.40;;
18716;SDS011;9487;50.892;6.906;2023-02-28T07:03:18;5.47;;;3.90;;
18716;SDS011;9487;50.892;6.906;2023-02-28T07:05:45;6.27;;;3.83;;
18716;SDS011;9487;50.892;6.906;2023-02-28T07:08:12;4.67;;;3.33;;
18716;SDS011;9487;50.892;6.906;2023-02-28T07:10:39;5.13;;;3.30;;
18716;SDS011;9487;50.892;6.906;2023-02-28T07:13:06;7.37;;;3.90;;
18716;SDS011;9487;50.892;6.906;2023-02-28T07:15:36;5.33;;;3.37;;
18716;SDS011;9487;50.892;6.906;2023-02-28T07:18:03;4.07;;;3.10;;
18716;SDS011;9487;50.892;6.906;2023-02-28T07:20:30;4.03;;;3.53;;
18716;SDS011;9487;50.892;6.906;2023-02-28T07:22:57;4.27;;;3.33;;
18716;SDS011;9487;50.892;6.906;2023-02-28T07:25:24;4.23;;;3.77;;
18716;SDS011;9487;50.892;6.906;2023-02-28T07:27:53;4.67;;;3.53;;
18716;SDS011;9487;50.892;6.906;2023-02-28T07:30:20;4.07;;;3.00;;
18716;SDS011;9487;50.892;6.906;2023-02-28T07:32:48;3.17;;;2.70;;
18716;SDS011;9487;50.892;6.906;2023-02-28T07:35:15;5.30;;;3.03;;
18716;SDS011;9487;50.892;6.906;2023-02-28T07:37:42;3.60;;;2.87;;
18716;SDS011;9487;50.892;6.906;2023-02-28T07:40:10;3.77;;;3.00;;
18716;SDS011;9487;50.892;6.906;2023-02-28T07:42:38;4.03;;;2.70;;
18716;SDS011;9487;50.892;6.906;2023-02-28T07:45:06;3.60;;;3.00;;
18716;SDS011;9487;50.892;6.906;2023-02-28T07:47:36;3.27;;;2.93;;
18716;SDS011;9487;50.892;6.906;2023-02-28T07:50:05;3.80;;;2.93;;
18716;SDS011;9487;50.892;6.906;2023-02-28T07:52:32;5.00;;;2.83;;
18716;SDS011;9487;50.892;6.906;2023-02-28T07:54:59;4.10;;;2.77;;
18716;SDS011;9487;50.892;6.906;2023-02-28T07:57:26;3.47;;;2.60;;
18716;SDS011;9487;50.892;6.906;2023-02-28T07:59:53;3.97;;;2.60;;
18716;SDS011;9487;50.892;6.906;2023-02-28T08:02:19;3.43;;;2.23;;
18716;SDS011;9487;50.892;6.906;2023-02-28T08:04:46;4.67;;;3.20;;
18716;SDS011;9487;50.892;6.906;2023-02-28T08:07:15;3.03;;;2.70;;
18716;SDS011;9487;50.892;6.906;2023-02-28T08:09:42;4.47;;;2.90;;
18716;SDS011;9487;50.892;6.906;2023-02-28T08:12:10;5.00;;;2.60;;
18716;SDS011;9487;50.892;6.906;2023-02-28T08:14:37;2.90;;;2.60;;
18716;SDS011;9487;50.892;6.906;2023-02-28T08:17:05;2.63;;;2.13;;
18716;SDS011;9487;50.892;6.906;2023-02-28T08:19:32;3.77;;;2.47;;
18716;SDS011;9487;50.892;6.906;2023-02-28T08:21:59;2.83;;;2.30;;
18716;SDS011;9487;50.892;6.906;2023-02-28T08:24:27;3.47;;;2.20;;
18716;SDS011;9487;50.892;6.906;2023-02-28T08:26:54;3.90;;;2.00;;
18716;SDS011;9487;50.892;6.906;2023-02-28T08:29:21;2.77;;;2.40;;
18716;SDS011;9487;50.892;6.906;2023-02-28T08:31:48;4.40;;;2.40;;
18716;SDS011;9487;50.892;6.906;2023-02-28T08:34:15;3.70;;;2.33;;
18716;SDS011;9487;50.892;6.906;2023-02-28T08:36:43;3.43;;;2.10;;
18716;SDS011;9487;50.892;6.906;2023-02-28T08:39:11;6.20;;;2.67;;
18716;SDS011;9487;50.892;6.906;2023-02-28T08:41:39;3.53;;;2.30;;
18716;SDS011;9487;50.892;6.906;2023-02-28T08:44:06;3.73;;;2.17;;
18716;SDS011;9487;50.892;6.906;2023-02-28T08:46:33;1.93;;;1.73;;
18716;SDS011;9487;50.892;6.906;2023-02-28T08:48:59;4.03;;;1.83;;
18716;SDS011;9487;50.892;6.906;2023-02-28T08:51:27;3.10;;;1.90;;
18716;SDS011;9487;50.892;6.906;2023-02-28T08:53:55;4.33;;;2.33;;
18716;SDS011;9487;50.892;6.906;2023-02-28T08:56:25;2.53;;;1.90;;
18716;SDS011;9487;50.892;6.906;2023-02-28T08:58:54;2.20;;;1.50;;
18716;SDS011;9487;50.892;6.906;2023-02-28T09:01:23;3.00;;;1.80;;
18716;SDS011;9487;50.892;6.906;2023-02-28T09:03:51;3.00;;;1.73;;
18716;SDS011;9487;50.892;6.906;2023-02-28T09:06:19;2.90;;;1.43;;
18716;SDS011;9487;50.892;6.906;2023-02-28T09:08:47;2.73;;;1.80;;
18716;SDS011;9487;50.892;6.906;2023-02-28T09:11:14;2.87;;;1.70;;
18716;SDS011;9487;50.892;6.906;2023-02-28T09:13:41;1.70;;;1.30;;
18716;SDS011;9487;50.892;6.906;2023-02-28T09:16:11;2.10;;;1.23;;
18716;SDS011;9487;50.892;6.906;2023-02-28T09:18:39;4.70;;;1.40;;
18716;SDS011;9487;50.892;6.906;2023-02-28T09:21:07;2.10;;;1.13;;
18716;SDS011;9487;50.892;6.906;2023-02-28T09:23:37;1.97;;;1.30;;
18716;SDS011;9487;50.892;6.906;2023-02-28T09:26:04;3.17;;;2.17;;
18716;SDS011;9487;50.892;6.906;2023-02-28T09:28:31;4.13;;;2.73;;
18716;SDS011;9487;50.892;6.906;2023-02-28T09:30:58;2.47;;;2.10;;
18716;SDS011;9487;50.892;6.906;2023-02-28T09:33:26;2.87;;;1.87;;
18716;SDS011;9487;50.892;6.906;2023-02-28T09:35:57;1.50;;;1.40;;
18716;SDS011;9487;50.892;6.906;2023-02-28T09:38:25;1.97;;;1.63;;
18716;SDS011;9487;50.892;6.906;2023-02-28T09:40:53;3.07;;;1.50;;
18716;SDS011;9487;50.892;6.906;2023-02-28T09:43:22;2.83;;;1.60;;
18716;SDS011;9487;50.892;6.906;2023-02-28T09:45:54;2.90;;;1.80;;
18716;SDS011;9487;50.892;6.906;2023-02-28T09:48:28;1.60;;;1.50;;
18716;SDS011;9487;50.892;6.906;2023-02-28T09:51:00;2.23;;;1.63;;
18716;SDS011;9487;50.892;6.906;2023-02-28T09:53:32;1.63;;;1.50;;
18716;SDS011;9487;50.892;6.906;2023-02-28T09:56:04;2.30;;;1.57;;
18716;SDS011;9487;50.892;6.906;2023-02-28T09:58:34;2.37;;;1.80;;
18716;SDS011;9487;50.892;6.906;2023-02-28T10:01:09;3.60;;;1.60;;
18716;SDS011;9487;50.892;6.906;2023-02-28T10:03:48;4.00;;;1.80;;
18716;SDS011;9487;50.892;6.906;2023-02-28T10:06:22;1.97;;;1.50;;
18716;SDS011;9487;50.892;6.906;2023-02-28T10:08:56;2.13;;;1.40;;
18716;SDS011;9487;50.892;6.906;2023-02-28T10:11:28;2.07;;;1.40;;
18716;SDS011;9487;50.892;6.906;2023-02-28T10:13:59;2.23;;;1.70;;
18716;SDS011;9487;50.892;6.906;2023-02-28T10:16:31;2.53;;;1.70;;
18716;SDS011;9487;50.892;6.906;2023-02-28T10:19:03;2.33;;;1.80;;
18716;SDS011;9487;50.892;6.906;2023-02-28T10:21:35;2.43;;;1.93;;
18716;SDS011;9487;50.892;6.906;2023-02-28T10:24:10;3.27;;;1.90;;
18716;SDS011;9487;50.892;6.906;2023-02-28T10:26:45;3.53;;;1.70;;
18716;SDS011;9487;50.892;6.906;2023-02-28T10:29:14;3.60;;;1.70;;
18716;SDS011;9487;50.892;6.906;2023-02-28T10:31:41;2.83;;;2.10;;
18716;SDS011;9487;50.892;6.906;2023-02-28T10:34:11;2.87;;;1.70;;
18716;SDS011;9487;50.892;6.906;2023-02-28T10:36:39;2.00;;;1.60;;
18716;SDS011;9487;50.892;6.906;2023-02-28T10:42:00;3.30;;;1.90;;
18716;SDS011;9487;50.892;6.906;2023-02-28T10:44:27;2.90;;;2.23;;
18716;SDS011;9487;50.892;6.906;2023-02-28T10:46:53;2.50;;;1.97;;
18716;SDS011;9487;50.892;6.906;2023-02-28T10:49:23;2.20;;;1.80;;
18716;SDS011;9487;50.892;6.906;2023-02-28T10:51:53;1.90;;;1.80;;
18716;SDS011;9487;50.892;6.906;2023-02-28T10:54:23;2.10;;;1.70;;
18716;SDS011;9487;50.892;6.906;2023-02-28T10:57:07;3.40;;;2.00;;
18716;SDS011;9487;50.892;6.906;2023-02-28T10:59:40;2.43;;;1.93;;
18716;SDS011;9487;50.892;6.906;2023-02-28T11:04:57;2.10;;;1.90;;
18716;SDS011;9487;50.892;6.906;2023-02-28T11:07:25;3.80;;;2.10;;
18716;SDS011;9487;50.892;6.906;2023-02-28T11:09:53;3.03;;;1.93;;
18716;SDS011;9487;50.892;6.906;2023-02-28T11:12:22;5.27;;;1.87;;
18716;SDS011;9487;50.892;6.906;2023-02-28T11:14:52;4.17;;;2.37;;
18716;SDS011;9487;50.892;6.906;2023-02-28T11:17:22;2.53;;;2.10;;
18716;SDS011;9487;50.892;6.906;2023-02-28T11:19:51;2.67;;;1.90;;
18716;SDS011;9487;50.892;6.906;2023-02-28T11:22:22;2.93;;;2.20;;
18716;SDS011;9487;50.892;6.906;2023-02-28T11:24:53;2.30;;;2.10;;
18716;SDS011;9487;50.892;6.906;2023-02-28T11:27:24;4.20;;;1.90;;
18716;SDS011;9487;50.892;6.906;2023-02-28T11:29:53;3.43;;;2.10;;
18716;SDS011;9487;50.892;6.906;2023-02-28T11:32:20;3.23;;;2.03;;
18716;SDS011;9487;50.892;6.906;2023-02-28T11:34:59;2.83;;;2.17;;
18716;SDS011;9487;50.892;6.906;2023-02-28T11:37:29;2.90;;;2.53;;
18716;SDS011;9487;50.892;6.906;2023-02-28T11:39:59;3.17;;;2.30;;
18716;SDS011;9487;50.892;6.906;2023-02-28T11:42:37;4.07;;;2.40;;
18716;SDS011;9487;50.892;6.906;2023-02-28T11:45:22;3.03;;;1.90;;
18716;SDS011;9487;50.892;6.906;2023-02-28T11:48:04;4.83;;;2.13;;
18716;SDS011;9487;50.892;6.906;2023-02-28T11:50:40;2.33;;;2.10;;
18716;SDS011;9487;50.892;6.906;2023-02-28T11:53:25;2.53;;;2.30;;
18716;SDS011;9487;50.892;6.906;2023-02-28T11:56:10;3.17;;;2.20;;
18716;SDS011;9487;50.892;6.906;2023-02-28T11:58:45;2.80;;;1.97;;
18716;SDS011;9487;50.892;6.906;2023-02-28T12:01:22;2.63;;;2.00;;
18716;SDS011;9487;50.892;6.906;2023-02-28T12:04:03;2.57;;;2.20;;
18716;SDS011;9487;50.892;6.906;2023-02-28T12:06:55;2.57;;;2.10;;
18716;SDS011;9487;50.892;6.906;2023-02-28T12:09:39;2.27;;;2.00;;
18716;SDS011;9487;50.892;6.906;2023-02-28T12:12:21;2.53;;;2.27;;
18716;SDS011;9487;50.892;6.906;2023-02-28T12:14:59;3.10;;;2.60;;
18716;SDS011;9487;50.892;6.906;2023-02-28T12:17:53;2.77;;;2.37;;
18716;SDS011;9487;50.892;6.906;2023-02-28T12:20:32;3.37;;;2.10;;
18716;SDS011;9487;50.892;6.906;2023-02-28T12:23:10;4.60;;;2.40;;
18716;SDS011;9487;50.892;6.906;2023-02-28T12:26:01;3.97;;;2.60;;
18716;SDS011;9487;50.892;6.906;2023-02-28T12:28:36;2.90;;;2.37;;
18716;SDS011;9487;50.892;6.906;2023-02-28T12:31:09;2.70;;;2.37;;
18716;SDS011;9487;50.892;6.906;2023-02-28T12:33:40;2.70;;;2.37;;
18716;SDS011;9487;50.892;6.906;2023-02-28T12:36:11;2.50;;;2.30;;
18716;SDS011;9487;50.892;6.906;2023-02-28T12:38:44;3.20;;;2.13;;
18716;SDS011;9487;50.892;6.906;2023-02-28T12:41:15;3.30;;;2.20;;
18716;SDS011;9487;50.892;6.906;2023-02-28T12:43:46;4.13;;;2.50;;
18716;SDS011;9487;50.892;6.906;2023-02-28T12:46:17;2.40;;;2.20;;
18716;SDS011;9487;50.892;6.906;2023-02-28T12:48:48;3.10;;;2.30;;
18716;SDS011;9487;50.892;6.906;2023-02-28T12:51:18;2.60;;;2.40;;
18716;SDS011;9487;50.892;6.906;2023-02-28T12:53:50;3.00;;;2.70;;
18716;SDS011;9487;50.892;6.906;2023-02-28T12:56:27;4.10;;;2.70;;
18716;SDS011;9487;50.892;6.906;2023-02-28T12:59:01;3.03;;;2.73;;
18716;SDS011;9487;50.892;6.906;2023-02-28T13:01:48;3.17;;;2.87;;
18716;SDS011;9487;50.892;6.906;2023-02-28T13:04:36;3.37;;;2.70;;
18716;SDS011;9487;50.892;6.906;2023-02-28T13:10:15;3.70;;;2.83;;
18716;SDS011;9487;50.892;6.906;2023-02-28T13:12:48;4.93;;;2.80;;
18716;SDS011;9487;50.892;6.906;2023-02-28T13:15:17;4.80;;;3.47;;
18716;SDS011;9487;50.892;6.906;2023-02-28T13:17:49;3.73;;;2.93;;
18716;SDS011;9487;50.892;6.906;2023-02-28T13:20:18;3.63;;;3.20;;
18716;SDS011;9487;50.892;6.906;2023-02-28T13:22:47;4.27;;;3.20;;
18716;SDS011;9487;50.892;6.906;2023-02-28T13:31:26;5.60;;;3.33;;
18716;SDS011;9487;50.892;6.906;2023-02-28T13:36:41;3.70;;;3.40;;
18716;SDS011;9487;50.892;6.906;2023-02-28T13:47:53;3.77;;;3.43;;
18716;SDS011;9487;50.892;6.906;2023-02-28T13:50:23;3.97;;;3.53;;
18716;SDS011;9487;50.892;6.906;2023-02-28T13:52:57;4.60;;;2.87;;
18716;SDS011;9487;50.892;6.906;2023-02-28T13:55:46;3.20;;;2.90;;
18716;SDS011;9487;50.892;6.906;2023-02-28T13:58:23;3.00;;;2.70;;
18716;SDS011;9487;50.892;6.906;2023-02-28T14:01:05;4.27;;;3.20;;
18716;SDS011;9487;50.892;6.906;2023-02-28T14:03:46;3.70;;;3.30;;
18716;SDS011;9487;50.892;6.906;2023-02-28T14:06:35;3.23;;;2.90;;
18716;SDS011;9487;50.892;6.906;2023-02-28T14:09:06;3.90;;;3.23;;
18716;SDS011;9487;50.892;6.906;2023-02-28T14:11:43;3.47;;;3.17;;
18716;SDS011;9487;50.892;6.906;2023-02-28T14:14:53;3.30;;;3.00;;
18716;SDS011;9487;50.892;6.906;2023-02-28T14:17:22;3.97;;;3.20;;
18716;SDS011;9487;50.892;6.906;2023-02-28T14:19:51;3.57;;;3.23;;
18716;SDS011;9487;50.892;6.906;2023-02-28T14:22:21;4.37;;;3.97;;
18716;SDS011;9487;50.892;6.906;2023-02-28T14:25:16;4.30;;;3.23;;
18716;SDS011;9487;50.892;6.906;2023-02-28T14:27:49;4.23;;;3.10;;
18716;SDS011;9487;50.892;6.906;2023-02-28T14:33:23;4.13;;;3.60;;
18716;SDS011;9487;50.892;6.906;2023-02-28T14:36:04;3.60;;;3.20;;
18716;SDS011;9487;50.892;6.906;2023-02-28T14:38:36;5.37;;;3.40;;
18716;SDS011;9487;50.892;6.906;2023-02-28T14:41:12;4.63;;;3.67;;
18716;SDS011;9487;50.892;6.906;2023-02-28T14:43:48;4.17;;;3.17;;
18716;SDS011;9487;50.892;6.906;2023-02-28T14:46:16;3.47;;;3.17;;
18716;SDS011;9487;50.892;6.906;2023-02-28T14:48:44;5.23;;;3.80;;
18716;SDS011;9487;50.892;6.906;2023-02-28T14:51:17;3.70;;;3.27;;
18716;SDS011;9487;50.892;6.906;2023-02-28T14:53:47;3.60;;;3.30;;
18716;SDS011;9487;50.892;6.906;2023-02-28T14:56:21;6.10;;;3.57;;
18716;SDS011;9487;50.892;6.906;2023-02-28T14:58:51;3.40;;;3.10;;
18716;SDS011;9487;50.892;6.906;2023-02-28T15:01:19;3.60;;;3.30;;
18716;SDS011;9487;50.892;6.906;2023-02-28T15:03:47;7.13;;;3.93;;
18716;SDS011;9487;50.892;6.906;2023-02-28T15:06:16;6.17;;;3.80;;
18716;SDS011;9487;50.892;6.906;2023-02-28T15:08:43;3.90;;;3.50;;
18716;SDS011;9487;50.892;6.906;2023-02-28T15:11:13;5.57;;;4.53;;
18716;SDS011;9487;50.892;6.906;2023-02-28T15:13:44;6.93;;;4.40;;
18716;SDS011;9487;50.892;6.906;2023-02-28T15:16:14;4.20;;;3.80;;
18716;SDS011;9487;50.892;6.906;2023-02-28T15:18:44;4.80;;;3.77;;
18716;SDS011;9487;50.892;6.906;2023-02-28T15:21:16;4.20;;;3.73;;
18716;SDS011;9487;50.892;6.906;2023-02-28T15:23:46;4.97;;;3.40;;
18716;SDS011;9487;50.892;6.906;2023-02-28T15:26:16;4.40;;;3.33;;
18716;SDS011;9487;50.892;6.906;2023-02-28T15:28:47;3.67;;;3.37;;
18716;SDS011;9487;50.892;6.906;2023-02-28T15:31:18;3.67;;;3.37;;
18716;SDS011;9487;50.892;6.906;2023-02-28T15:33:52;4.40;;;3.47;;
18716;SDS011;9487;50.892;6.906;2023-02-28T15:36:23;4.10;;;3.70;;
18716;SDS011;9487;50.892;6.906;2023-02-28T15:38:55;3.73;;;3.20;;
18716;SDS011;9487;50.892;6.906;2023-02-28T15:41:23;3.50;;;3.20;;
18716;SDS011;9487;50.892;6.906;2023-02-28T15:46:41;5.60;;;4.33;;
18716;SDS011;9487;50.892;6.906;2023-02-28T15:49:12;4.70;;;3.90;;
18716;SDS011;9487;50.892;6.906;2023-02-28T15:51:48;6.40;;;4.50;;
18716;SDS011;9487;50.892;6.906;2023-02-28T15:54:17;5.87;;;3.90;;
18716;SDS011;9487;50.892;6.906;2023-02-28T15:56:49;4.13;;;3.67;;